Time;durP1;ratioP1;P1;durP2;ratioP2;P2;SDS_P1;SDS_P2;PMS_P1;PMS_P2;Temp;Humidity;BMP_temperature;BMP_pressure;BME280_temperature;BME280_humidity;BME280_pressure;Samples;Min_cycle;Max_cycle;Signal;HPM_P1;HPM_P2
2022/07/17 00:00:00;;;;;;;6.22;3.42;;;10.10;1.00;;;;;;4983154;28;20112;-89
2022/07/17 00:02:26;;;;;;;4.45;2.40;;;10.10;1.00;;;;;;4976758;28;20510;-89
2022/07/17 00:04:52;;;;;;;4.95;2.90;;;10.10;34.10;;;;;;4972517;28;20064;-89
2022/07/17 00:07:18;;;;;;;7.45;3.05;;;10.00;1.00;;;;;;4966665;28;20472;-90
2022/07/17 00:09:44;;;;;;;8.27;3.30;;;10.00;1.00;;;;;;4967057;28;20042;-90
2022/07/17 00:12:09;;;;;;;8.35;3.38;;;10.10;1.00;;;;;;4979294;28;20053;-90
2022/07/17 00:14:35;;;;;;;5.13;3.15;;;10.10;1.00;;;;;;4965963;28;20087;-90
2022/07/17 00:17:01;;;;;;;6.97;4.22;;;10.10;17.70;;;;;;4964385;28;20239;-88
2022/07/17 00:19:27;;;;;;;10.18;5.18;;;10.10;1.00;;;;;;4977034;28;20412;-89
2022/07/17 00:21:53;;;;;;;5.43;3.67;;;10.00;46.20;;;;;;4971411;28;20038;-89
2022/07/17 00:24:22;;;;;;;9.07;3.47;;;10.00;77.70;;;;;;4969763;28;20030;-89
2022/07/17 00:26:49;;;;;;;8.35;3.45;;;10.00;97.30;;;;;;4961424;28;20050;-90
2022/07/17 00:29:19;;;;;;;7.20;3.35;;;9.90;99.90;;;;;;4959243;28;20133;-90
2022/07/17 00:31:45;;;;;;;7.15;2.97;;;10.00;87.50;;;;;;4974065;28;20397;-88
2022/07/17 00:34:11;;;;;;;6.95;3.10;;;9.90;42.10;;;;;;4984991;28;20045;-89
2022/07/17 00:36:37;;;;;;;5.88;3.17;;;9.90;18.10;;;;;;4974519;28;20410;-90
2022/07/17 00:39:04;;;;;;;7.70;3.08;;;9.80;58.60;;;;;;4973272;28;20633;-89
2022/07/17 00:41:30;;;;;;;6.22;2.85;;;9.80;54.70;;;;;;4977291;28;20053;-89
2022/07/17 00:44:07;;;;;;;5.03;2.85;;;9.70;4.70;;;;;;4969761;28;20042;-90
2022/07/17 00:46:33;;;;;;;6.03;2.90;;;9.70;1.00;;;;;;4979288;28;20056;-89
2022/07/17 00:48:59;;;;;;;6.10;3.50;;;9.60;1.00;;;;;;4974312;28;20038;-90
2022/07/17 00:51:25;;;;;;;6.45;3.10;;;9.60;97.00;;;;;;4970574;28;20125;-89
2022/07/17 00:53:52;;;;;;;4.55;3.17;;;9.60;99.90;;;;;;4981372;28;20549;-88
2022/07/17 00:56:20;;;;;;;9.60;3.55;;;9.60;99.90;;;;;;4976402;28;20283;-89
2022/07/17 00:58:49;;;;;;;4.60;3.20;;;9.60;99.90;;;;;;4964163;28;20165;-89
2022/07/17 01:01:18;;;;;;;3.50;2.72;;;9.50;99.90;;;;;;4966103;28;20227;-89
2022/07/17 01:03:44;;;;;;;6.15;3.00;;;9.50;99.90;;;;;;4979136;28;20308;-89
2022/07/17 01:06:10;;;;;;;8.90;2.80;;;9.50;99.90;;;;;;4973663;28;20364;-89
2022/07/17 01:08:37;;;;;;;4.28;2.53;;;9.50;99.90;;;;;;4973617;28;20157;-89
2022/07/17 01:11:04;;;;;;;4.05;2.65;;;9.40;56.40;;;;;;4964288;28;20038;-90
2022/07/17 01:13:31;;;;;;;4.07;2.42;;;9.40;31.50;;;;;;4972492;28;20597;-90
2022/07/17 01:15:57;;;;;;;6.43;2.90;;;9.40;1.00;;;;;;4985911;28;20128;-90
2022/07/17 01:18:23;;;;;;;7.00;3.00;;;9.40;1.00;;;;;;4973896;28;20501;-90
2022/07/17 01:20:50;;;;;;;7.65;3.03;;;9.30;45.50;;;;;;4984536;28;20114;-89
2022/07/17 01:23:17;;;;;;;4.38;2.60;;;9.30;96.70;;;;;;4974145;28;20030;-89
2022/07/17 01:25:44;;;;;;;4.20;2.75;;;9.30;89.80;;;;;;4967476;28;20390;-90
2022/07/17 01:28:10;;;;;;;3.88;2.60;;;9.20;52.90;;;;;;4982994;28;20125;-89
2022/07/17 01:30:44;;;;;;;4.93;3.05;;;9.30;99.90;;;;;;4983250;28;20053;-89
2022/07/17 01:33:11;;;;;;;6.00;3.10;;;9.20;99.90;;;;;;4972561;28;20049;-90
2022/07/17 01:35:36;;;;;;;4.93;2.95;;;9.20;89.90;;;;;;4969505;28;20062;-90
2022/07/17 01:38:05;;;;;;;5.15;2.80;;;9.20;93.70;;;;;;4965058;28;20064;-89
2022/07/17 01:40:31;;;;;;;6.32;3.17;;;9.20;99.90;;;;;;4989269;28;20136;-89
2022/07/17 01:42:57;;;;;;;6.82;3.35;;;9.20;99.90;;;;;;4973835;28;20113;-90
2022/07/17 01:45:22;;;;;;;7.47;3.38;;;9.20;99.90;;;;;;4981463;28;20229;-89
2022/07/17 01:47:48;;;;;;;7.60;3.33;;;9.20;99.90;;;;;;4971403;28;20046;-89
2022/07/17 01:50:14;;;;;;;8.27;3.25;;;9.20;99.90;;;;;;4977761;28;20045;-89
2022/07/17 01:52:45;;;;;;;6.95;3.50;;;9.20;99.90;;;;;;4972565;28;20054;-89
2022/07/17 01:55:13;;;;;;;5.00;2.60;;;9.10;99.90;;;;;;4979124;28;20069;-91
2022/07/17 01:57:40;;;;;;;7.30;3.35;;;9.10;99.90;;;;;;4986462;28;20054;-90
2022/07/17 02:00:11;;;;;;;8.88;3.42;;;9.00;99.90;;;;;;4969608;28;20038;-89
2022/07/17 02:02:37;;;;;;;6.15;3.30;;;9.00;99.90;;;;;;4980264;28;20351;-89
2022/07/17 02:05:03;;;;;;;6.28;3.35;;;9.00;99.90;;;;;;4983150;28;20234;-90
2022/07/17 02:07:29;;;;;;;10.50;3.10;;;9.00;99.90;;;;;;4973933;28;20042;-89
2022/07/17 02:09:55;;;;;;;3.70;2.75;;;9.00;99.90;;;;;;4973669;28;20116;-91
2022/07/17 02:12:20;;;;;;;4.03;2.67;;;9.00;99.90;;;;;;4972995;28;20038;-89
2022/07/17 02:14:46;;;;;;;6.63;3.08;;;9.00;99.90;;;;;;4965106;28;20132;-89
2022/07/17 02:17:12;;;;;;;5.03;3.10;;;9.00;99.90;;;;;;4972897;28;20042;-89
2022/07/17 02:19:38;;;;;;;5.65;2.88;;;9.00;99.90;;;;;;4964729;28;20042;-90
2022/07/17 02:22:03;;;;;;;9.02;3.70;;;9.00;99.90;;;;;;4964671;28;20454;-89
2022/07/17 02:24:29;;;;;;;6.38;3.13;;;9.00;99.90;;;;;;4971460;28;20066;-89
2022/07/17 02:26:55;;;;;;;5.20;3.30;;;9.00;99.90;;;;;;4972274;28;20551;-90
2022/07/17 02:29:21;;;;;;;5.03;3.30;;;9.00;99.90;;;;;;4965816;28;20331;-89
2022/07/17 02:31:46;;;;;;;5.80;3.20;;;8.90;99.90;;;;;;4970239;28;20077;-89
2022/07/17 02:34:12;;;;;;;4.75;3.10;;;8.90;99.90;;;;;;4979448;28;20560;-89
2022/07/17 02:36:38;;;;;;;5.68;3.40;;;8.90;99.90;;;;;;4980545;28;20545;-89
2022/07/17 02:39:04;;;;;;;4.40;3.15;;;8.90;99.90;;;;;;4961891;28;20096;-89
2022/07/17 02:41:29;;;;;;;4.88;3.28;;;8.90;99.90;;;;;;4972442;28;20126;-81
2022/07/17 02:43:55;;;;;;;5.93;3.72;;;8.90;99.90;;;;;;4962483;28;20070;-81
2022/07/17 02:46:21;;;;;;;6.55;3.67;;;8.90;99.90;;;;;;4979575;28;20127;-81
2022/07/17 02:48:46;;;;;;;6.70;3.50;;;8.90;99.90;;;;;;4968505;28;20055;-81
2022/07/17 02:51:12;;;;;;;3.85;3.25;;;8.90;99.90;;;;;;4971694;28;20172;-81
2022/07/17 02:53:38;;;;;;;6.60;3.33;;;8.90;99.90;;;;;;4967864;28;20078;-81
2022/07/17 02:56:04;;;;;;;5.82;3.45;;;8.90;99.90;;;;;;4970732;28;20417;-82
2022/07/17 02:58:30;;;;;;;6.50;3.47;;;8.90;99.90;;;;;;4985946;28;20050;-81
2022/07/17 03:00:56;;;;;;;5.53;2.95;;;8.90;99.90;;;;;;4960969;28;20057;-81
2022/07/17 03:03:21;;;;;;;6.95;2.75;;;8.80;99.90;;;;;;4961730;28;20046;-81
2022/07/17 03:05:48;;;;;;;5.97;3.47;;;8.80;99.90;;;;;;4984228;28;20038;-81
2022/07/17 03:08:14;;;;;;;5.18;4.20;;;8.80;99.90;;;;;;4973434;28;20084;-81
2022/07/17 03:10:40;;;;;;;7.05;4.00;;;8.80;99.90;;;;;;4975847;28;20165;-81
2022/07/17 03:13:06;;;;;;;4.68;3.20;;;8.70;99.90;;;;;;4975336;28;20535;-81
2022/07/17 03:15:32;;;;;;;5.40;3.63;;;8.60;99.90;;;;;;4967804;28;20191;-81
2022/07/17 03:17:58;;;;;;;5.63;3.45;;;8.70;99.90;;;;;;4972292;28;20240;-81
2022/07/17 03:20:24;;;;;;;6.00;3.17;;;8.60;99.90;;;;;;4961458;28;20042;-81
2022/07/17 03:22:53;;;;;;;5.65;3.47;;;8.60;99.90;;;;;;4971079;28;20061;-81
2022/07/17 03:25:19;;;;;;;5.93;3.55;;;8.70;99.90;;;;;;4969722;28;20446;-81
2022/07/17 03:27:45;;;;;;;4.90;3.40;;;8.70;99.90;;;;;;4970124;28;20053;-81
2022/07/17 03:30:10;;;;;;;11.93;4.60;;;8.80;99.90;;;;;;4958714;28;20046;-81
2022/07/17 03:32:36;;;;;;;4.13;3.00;;;8.90;99.90;;;;;;4971868;28;20042;-81
2022/07/17 03:35:02;;;;;;;4.70;2.90;;;8.70;99.90;;;;;;4979963;28;20061;-81
2022/07/17 03:37:28;;;;;;;5.93;2.70;;;8.40;99.90;;;;;;4970301;28;20054;-81
2022/07/17 03:39:57;;;;;;;3.03;2.70;;;8.40;99.90;;;;;;4982240;28;20038;-81
2022/07/17 03:42:23;;;;;;;5.45;2.60;;;8.30;99.90;;;;;;5002258;28;20200;-81
2022/07/17 03:44:48;;;;;;;5.82;3.03;;;8.30;99.90;;;;;;4981538;28;20038;-81
2022/07/17 03:47:14;;;;;;;4.50;3.35;;;8.30;99.90;;;;;;4968421;28;20424;-81
2022/07/17 03:49:40;;;;;;;3.75;3.03;;;8.30;99.90;;;;;;4967656;28;20066;-81
2022/07/17 03:52:06;;;;;;;4.72;3.25;;;8.30;99.90;;;;;;4968514;28;20192;-81
2022/07/17 03:54:31;;;;;;;5.75;3.17;;;8.30;99.90;;;;;;4975898;28;20373;-81
2022/07/17 03:56:57;;;;;;;6.22;3.20;;;8.40;99.90;;;;;;4981791;28;20041;-81
2022/07/17 03:59:23;;;;;;;5.03;3.33;;;8.50;99.90;;;;;;4985651;28;20057;-81
2022/07/17 04:01:49;;;;;;;3.72;2.72;;;8.50;99.90;;;;;;4980959;28;20077;-81
2022/07/17 04:04:14;;;;;;;4.50;2.65;;;8.60;99.90;;;;;;4974469;28;20054;-81
2022/07/17 04:06:40;;;;;;;4.32;3.13;;;8.60;99.90;;;;;;4983482;28;20049;-81
2022/07/17 04:09:06;;;;;;;6.68;2.97;;;8.70;99.90;;;;;;4969684;28;20049;-81
2022/07/17 04:11:31;;;;;;;6.13;3.30;;;8.80;99.90;;;;;;4969587;28;20233;-81
2022/07/17 04:13:57;;;;;;;5.88;3.45;;;8.90;99.90;;;;;;4968017;28;20111;-81
2022/07/17 04:16:23;;;;;;;5.18;3.20;;;9.00;99.90;;;;;;4968090;28;20034;-81
2022/07/17 04:18:49;;;;;;;6.32;3.45;;;9.10;99.90;;;;;;4971786;28;20052;-81
2022/07/17 04:21:18;;;;;;;4.88;3.20;;;9.10;99.90;;;;;;4977938;28;20108;-81
2022/07/17 04:23:43;;;;;;;4.25;3.50;;;9.20;99.90;;;;;;4964647;28;20050;-81
2022/07/17 04:26:09;;;;;;;7.82;4.13;;;9.40;99.90;;;;;;4968515;28;20158;-81
2022/07/17 04:28:35;;;;;;;7.03;3.80;;;9.50;99.90;;;;;;4973507;28;20545;-81
2022/07/17 04:31:01;;;;;;;8.00;4.47;;;9.50;99.90;;;;;;4958218;28;20043;-81
2022/07/17 04:33:27;;;;;;;6.43;4.05;;;9.50;99.90;;;;;;4967021;28;20042;-80
2022/07/17 04:35:53;;;;;;;8.52;4.50;;;9.60;99.90;;;;;;4970962;28;20061;-81
2022/07/17 04:38:21;;;;;;;5.60;4.43;;;9.70;99.90;;;;;;4976103;28;20042;-81
2022/07/17 04:40:47;;;;;;;6.85;4.25;;;9.80;99.90;;;;;;4982457;28;20483;-81
2022/07/17 04:43:13;;;;;;;9.52;4.40;;;9.90;99.90;;;;;;4969529;28;20042;-81
2022/07/17 04:45:38;;;;;;;5.47;4.10;;;10.00;99.90;;;;;;4974688;28;20045;-81
2022/07/17 04:48:04;;;;;;;7.93;4.50;;;10.10;99.90;;;;;;4976097;28;20109;-81
2022/07/17 04:50:30;;;;;;;6.25;4.60;;;10.20;99.90;;;;;;4966459;28;20046;-81
2022/07/17 04:52:57;;;;;;;8.63;4.60;;;10.30;99.90;;;;;;4969826;28;20132;-81
2022/07/17 04:55:23;;;;;;;7.97;4.60;;;10.40;99.90;;;;;;4971984;28;20062;-81
2022/07/17 04:57:49;;;;;;;7.78;4.28;;;10.50;99.90;;;;;;4958860;28;20297;-81
2022/07/17 05:00:15;;;;;;;6.60;4.75;;;10.60;99.90;;;;;;4961456;28;20050;-81
2022/07/17 05:02:41;;;;;;;5.38;4.35;;;10.70;99.90;;;;;;4956745;28;20352;-81
2022/07/17 05:05:07;;;;;;;8.60;4.30;;;10.80;99.90;;;;;;4955122;28;20045;-81
2022/07/17 05:07:33;;;;;;;8.77;4.65;;;10.80;99.90;;;;;;4954728;28;20065;-80
2022/07/17 05:09:59;;;;;;;7.97;4.38;;;10.90;99.90;;;;;;4950470;28;20069;-81
2022/07/17 05:12:24;;;;;;;8.80;3.80;;;11.00;99.90;;;;;;4954022;28;20054;-81
2022/07/17 05:14:50;;;;;;;8.23;3.95;;;11.10;99.90;;;;;;4973795;28;20038;-81
2022/07/17 05:17:16;;;;;;;8.18;4.13;;;11.30;99.90;;;;;;4959636;28;20390;-81
2022/07/17 05:19:42;;;;;;;10.57;3.53;;;11.40;99.90;;;;;;4970555;28;20065;-81
2022/07/17 05:22:07;;;;;;;5.93;3.22;;;11.50;99.90;;;;;;4958311;28;20043;-81
2022/07/17 05:24:33;;;;;;;8.02;3.75;;;11.60;99.90;;;;;;4985311;28;20090;-80
2022/07/17 05:27:00;;;;;;;8.48;3.30;;;11.70;99.90;;;;;;4968215;28;20557;-80
2022/07/17 05:29:26;;;;;;;3.83;3.05;;;11.80;99.90;;;;;;4974979;28;20042;-81
2022/07/17 05:31:51;;;;;;;6.28;2.92;;;11.90;99.90;;;;;;4963743;28;20435;-81
2022/07/17 05:34:17;;;;;;;5.38;3.20;;;12.00;99.90;;;;;;4963709;28;20169;-81
2022/07/17 05:36:46;;;;;;;6.70;3.58;;;12.10;99.90;;;;;;4966477;28;20035;-81
2022/07/17 05:39:12;;;;;;;7.30;3.20;;;12.20;99.90;;;;;;4960464;28;20385;-80
2022/07/17 05:41:38;;;;;;;6.53;3.05;;;12.30;99.90;;;;;;4966750;28;20053;-81
2022/07/17 05:44:04;;;;;;;5.35;3.20;;;12.40;99.90;;;;;;4980399;28;20043;-81
2022/07/17 05:46:30;;;;;;;8.27;3.35;;;12.60;99.90;;;;;;4972397;28;20050;-80
2022/07/17 05:48:56;;;;;;;4.82;3.03;;;12.70;99.90;;;;;;4967403;28;20514;-80
2022/07/17 05:51:22;;;;;;;7.18;3.55;;;12.80;99.90;;;;;;4979291;28;20678;-81
2022/07/17 05:53:47;;;;;;;8.57;3.15;;;12.90;99.90;;;;;;4979195;28;20046;-81
2022/07/17 05:56:13;;;;;;;7.00;3.80;;;13.00;99.90;;;;;;4959725;28;20046;-81
2022/07/17 05:58:39;;;;;;;7.10;3.10;;;13.00;96.80;;;;;;4973951;28;20373;-81
2022/07/17 06:01:05;;;;;;;4.72;3.15;;;13.10;59.00;;;;;;4970917;28;20055;-81
2022/07/17 06:03:30;;;;;;;8.70;3.63;;;13.30;89.90;;;;;;4958861;28;20508;-81
2022/07/17 06:05:56;;;;;;;8.63;3.60;;;13.50;11.10;;;;;;4977838;28;20039;-81
2022/07/17 06:08:22;;;;;;;9.05;3.35;;;13.60;1.00;;;;;;4966979;28;20510;-81
2022/07/17 06:10:48;;;;;;;8.10;3.20;;;13.80;1.00;;;;;;4975951;28;20035;-81
2022/07/17 06:13:13;;;;;;;4.90;3.00;;;14.10;99.90;;;;;;4979080;28;20045;-81
2022/07/17 06:15:42;;;;;;;7.47;3.22;;;14.20;99.90;;;;;;4976567;28;20042;-81
2022/07/17 06:18:09;;;;;;;6.85;2.53;;;14.40;1.00;;;;;;4981915;28;20046;-81
2022/07/17 06:20:34;;;;;;;6.75;2.30;;;14.50;99.90;;;;;;4967630;28;20046;-81
2022/07/17 06:23:00;;;;;;;5.43;2.42;;;14.50;99.90;;;;;;4977971;28;20050;-82
2022/07/17 06:25:26;;;;;;;5.65;2.78;;;14.70;99.90;;;;;;4965673;28;20046;-82
2022/07/17 06:27:51;;;;;;;4.03;2.80;;;14.80;99.90;;;;;;4972035;28;20632;-81
2022/07/17 06:30:18;;;;;;;4.70;2.30;;;14.90;99.90;;;;;;4959603;28;20537;-81
2022/07/17 06:32:43;;;;;;;6.25;2.90;;;15.10;99.90;;;;;;4978902;28;20103;-81
2022/07/17 06:35:10;;;;;;;5.03;2.60;;;15.20;99.90;;;;;;4971047;28;20466;-81
2022/07/17 06:37:36;;;;;;;5.50;2.58;;;15.30;99.90;;;;;;4975231;28;20082;-81
2022/07/17 06:40:03;;;;;;;6.03;2.15;;;15.40;99.90;;;;;;4976345;28;20043;-81
2022/07/17 06:42:29;;;;;;;6.75;2.33;;;15.50;99.90;;;;;;4981113;28;20583;-81
2022/07/17 06:44:55;;;;;;;7.25;2.05;;;15.50;99.90;;;;;;4971147;28;20087;-80
2022/07/17 06:47:20;;;;;;;3.50;1.80;;;15.80;99.90;;;;;;4977496;28;20057;-81
2022/07/17 06:49:47;;;;;;;8.00;2.10;;;15.90;99.90;;;;;;4965151;28;20133;-81
2022/07/17 06:52:12;;;;;;;5.47;1.90;;;16.20;99.90;;;;;;4982787;28;20041;-81
2022/07/17 06:54:38;;;;;;;4.60;1.85;;;16.10;99.90;;;;;;4978894;28;20049;-81
2022/07/17 06:57:04;;;;;;;4.80;1.95;;;16.20;99.90;;;;;;4977540;28;20129;-81
2022/07/17 06:59:29;;;;;;;5.75;1.95;;;16.20;99.90;;;;;;4966787;28;20478;-81
2022/07/17 07:01:55;;;;;;;3.75;1.98;;;16.20;99.90;;;;;;4973187;28;20037;-81
2022/07/17 07:04:21;;;;;;;4.45;1.83;;;16.30;99.90;;;;;;4982378;28;20046;-81
2022/07/17 07:06:46;;;;;;;6.15;2.22;;;16.20;99.90;;;;;;4969256;28;20045;-81
2022/07/17 07:09:12;;;;;;;8.05;2.05;;;16.40;99.90;;;;;;4968537;28;20046;-81
2022/07/17 07:11:39;;;;;;;6.53;1.80;;;16.50;99.90;;;;;;4972094;28;20502;-81
2022/07/17 07:14:06;;;;;;;4.68;1.77;;;16.50;99.90;;;;;;4963645;28;20037;-81
2022/07/17 07:16:32;;;;;;;7.90;1.90;;;16.50;98.30;;;;;;4982191;28;20053;-81
2022/07/17 07:18:57;;;;;;;3.75;1.58;;;16.70;99.90;;;;;;4969844;28;20049;-81
2022/07/17 07:21:24;;;;;;;4.20;1.75;;;16.70;99.90;;;;;;4970483;28;20041;-81
2022/07/17 07:23:50;;;;;;;3.33;1.70;;;16.80;99.90;;;;;;4966177;28;20382;-81
2022/07/17 07:26:16;;;;;;;5.07;1.50;;;17.00;99.90;;;;;;4971185;28;20046;-81
2022/07/17 07:28:42;;;;;;;5.75;1.73;;;17.00;99.90;;;;;;4968412;28;20038;-81
2022/07/17 07:31:10;;;;;;;6.82;1.85;;;17.00;70.30;;;;;;4975551;28;20052;-81
2022/07/17 07:33:37;;;;;;;5.78;2.00;;;17.00;55.80;;;;;;4959683;28;20045;-81
2022/07/17 07:36:03;;;;;;;4.40;1.55;;;17.20;95.40;;;;;;4969850;28;20042;-81
2022/07/17 07:38:29;;;;;;;4.88;1.60;;;17.10;41.70;;;;;;4955657;28;20494;-81
2022/07/17 07:40:55;;;;;;;6.15;1.85;;;17.20;45.80;;;;;;4979891;28;20056;-81
2022/07/17 07:43:21;;;;;;;5.32;2.17;;;17.10;6.60;;;;;;4968835;28;20054;-82
2022/07/17 07:45:50;;;;;;;4.25;1.40;;;17.30;1.00;;;;;;4978123;28;20117;-82
2022/07/17 07:48:16;;;;;;;4.25;1.80;;;17.30;1.00;;;;;;4960456;28;20045;-81
2022/07/17 07:50:42;;;;;;;5.22;1.30;;;17.30;1.00;;;;;;4965085;28;20041;-81
2022/07/17 07:53:08;;;;;;;4.75;1.38;;;17.30;1.00;;;;;;4980625;28;20046;-81
2022/07/17 07:55:34;;;;;;;7.05;1.67;;;17.40;1.00;;;;;;4972382;28;20050;-81
2022/07/17 07:58:12;;;;;;;4.88;1.38;;;17.30;1.00;;;;;;4968564;28;20665;-82
2022/07/17 08:00:39;;;;;;;7.38;1.40;;;17.50;1.00;;;;;;4970883;28;20052;-81
2022/07/17 08:03:06;;;;;;;3.58;1.45;;;17.60;1.00;;;;;;4972617;28;20045;-81
2022/07/17 08:05:32;;;;;;;4.03;1.58;;;17.50;1.00;;;;;;4970414;28;20039;-82
2022/07/17 08:07:58;;;;;;;5.05;1.65;;;17.70;1.00;;;;;;4958157;28;20038;-82
2022/07/17 08:10:23;;;;;;;5.35;2.50;;;17.90;1.00;;;;;;4969302;28;20050;-81
2022/07/17 08:12:49;;;;;;;5.53;1.30;;;17.90;1.00;;;;;;4979126;28;20048;-81
2022/07/17 08:15:17;;;;;;;5.05;1.48;;;18.00;1.00;;;;;;4969542;28;20053;-81
2022/07/17 08:17:44;;;;;;;5.68;1.50;;;18.00;1.00;;;;;;4966632;28;20049;-81
2022/07/17 08:20:13;;;;;;;3.42;1.60;;;18.00;1.00;;;;;;4968758;28;20034;-82
2022/07/17 08:22:39;;;;;;;5.93;1.52;;;17.80;1.00;;;;;;4970667;28;20302;-82
2022/07/17 08:25:05;;;;;;;5.57;1.52;;;17.90;1.00;;;;;;4969678;28;20058;-82
2022/07/17 08:27:36;;;;;;;5.43;1.70;;;18.00;1.00;;;;;;4969243;28;20133;-82
2022/07/17 08:30:04;;;;;;;3.85;1.48;;;18.10;1.00;;;;;;4972335;28;20102;-81
2022/07/17 08:32:29;;;;;;;7.13;1.70;;;18.20;1.00;;;;;;4977086;28;20050;-81
2022/07/17 08:34:55;;;;;;;4.60;1.70;;;18.20;1.00;;;;;;4970285;28;20414;-81
2022/07/17 08:37:21;;;;;;;5.07;1.50;;;18.10;1.00;;;;;;4984739;28;20135;-81
2022/07/17 08:39:46;;;;;;;4.97;1.50;;;18.30;1.00;;;;;;4969201;28;20300;-82
2022/07/17 08:42:16;;;;;;;3.17;1.30;;;18.50;1.00;;;;;;4962525;28;20477;-82
2022/07/17 08:44:45;;;;;;;4.60;1.40;;;18.60;1.00;;;;;;4967051;28;20117;-81
2022/07/17 08:47:15;;;;;;;4.60;1.40;;;18.30;1.00;;;;;;4967764;28;20049;-81
2022/07/17 08:49:49;;;;;;;7.00;1.50;;;18.70;1.00;;;;;;4975411;28;20045;-81
2022/07/17 08:52:15;;;;;;;5.25;1.40;;;19.10;1.00;;;;;;4969945;28;20054;-81
2022/07/17 08:54:41;;;;;;;6.30;1.40;;;19.10;1.00;;;;;;4973703;28;20065;-81
2022/07/17 08:57:09;;;;;;;3.55;1.30;;;19.30;1.00;;;;;;4974262;28;20058;-82
2022/07/17 08:59:35;;;;;;;5.53;1.60;;;19.20;99.90;;;;;;4978020;28;20058;-82
2022/07/17 09:02:03;;;;;;;4.43;1.70;;;19.20;99.90;;;;;;4968068;28;20511;-82
2022/07/17 09:04:28;;;;;;;7.38;1.30;;;18.90;99.90;;;;;;4956153;28;20050;-81
2022/07/17 09:07:02;;;;;;;4.28;1.27;;;19.40;99.90;;;;;;4960836;28;20047;-82
2022/07/17 09:09:29;;;;;;;4.30;1.63;;;19.20;99.90;;;;;;4967101;28;20054;-82
2022/07/17 09:12:03;;;;;;;4.85;1.60;;;19.30;99.90;;;;;;4963685;28;20046;-81
2022/07/17 09:14:40;;;;;;;6.65;1.52;;;19.30;99.90;;;;;;4965786;28;20471;-81
2022/07/17 09:17:08;;;;;;;4.47;1.48;;;19.80;99.90;;;;;;4956950;28;20051;-82
2022/07/17 09:19:40;;;;;;;4.28;1.48;;;20.10;99.90;;;;;;4967047;28;20039;-81
2022/07/17 09:22:11;;;;;;;3.30;1.27;;;20.30;99.90;;;;;;4954960;28;20046;-80
2022/07/17 09:24:45;;;;;;;3.63;1.25;;;20.40;99.90;;;;;;4962233;28;20092;-81
2022/07/17 09:27:14;;;;;;;4.17;1.33;;;20.50;99.90;;;;;;4982484;28;20157;-82
2022/07/17 09:30:11;;;;;;;4.00;1.30;;;20.60;99.90;;;;;;4969036;28;20046;-82
2022/07/17 09:32:41;;;;;;;4.43;1.60;;;20.70;99.90;;;;;;4959799;28;20051;-81
2022/07/17 09:35:09;;;;;;;3.97;1.05;;;20.70;99.90;;;;;;4969110;28;20111;-81
2022/07/17 09:37:36;;;;;;;4.28;1.40;;;21.10;99.90;;;;;;4969425;28;20046;-82
2022/07/17 09:43:13;;;;;;;5.10;1.50;;;21.00;99.90;;;;;;4980115;28;20490;-82
2022/07/17 09:45:40;;;;;;;4.10;1.33;;;21.20;99.90;;;;;;4967104;28;20054;-82
2022/07/17 09:48:05;;;;;;;4.18;1.60;;;20.90;99.90;;;;;;4970912;28;20186;-82
2022/07/17 09:50:38;;;;;;;3.78;1.40;;;20.90;99.90;;;;;;4977928;28;20046;-82
2022/07/17 09:53:06;;;;;;;2.60;1.38;;;20.80;99.90;;;;;;4982048;28;20057;-82
2022/07/17 09:55:33;;;;;;;3.10;1.33;;;21.10;99.90;;;;;;4963566;28;20047;-82
2022/07/17 09:58:00;;;;;;;3.20;1.30;;;21.40;99.90;;;;;;4968540;28;20086;-82
2022/07/17 10:00:26;;;;;;;6.50;1.42;;;21.50;99.90;;;;;;4978673;28;20038;-82
2022/07/17 10:02:53;;;;;;;5.18;1.60;;;21.10;99.90;;;;;;4952848;28;20451;-81
2022/07/17 10:05:19;;;;;;;4.57;1.42;;;21.50;99.90;;;;;;4973942;28;20038;-81
2022/07/17 10:07:46;;;;;;;3.53;1.50;;;21.70;99.90;;;;;;4975321;28;20112;-81
2022/07/17 10:10:13;;;;;;;2.47;1.23;;;21.50;99.90;;;;;;4969955;28;20050;-82
2022/07/17 10:12:43;;;;;;;3.03;1.25;;;21.60;99.90;;;;;;4985359;28;20472;-81
2022/07/17 10:15:10;;;;;;;2.50;1.30;;;21.50;99.90;;;;;;4970543;28;20100;-81
2022/07/17 10:17:36;;;;;;;3.00;1.17;;;21.40;99.90;;;;;;4967657;28;20411;-82
2022/07/17 10:20:05;;;;;;;3.60;1.13;;;21.80;99.90;;;;;;4968293;28;20046;-82
2022/07/17 10:22:45;;;;;;;3.35;1.25;;;21.40;99.90;;;;;;4961816;28;20130;-82
2022/07/17 10:25:17;;;;;;;2.88;1.45;;;22.00;99.90;;;;;;4986095;28;20041;-81
2022/07/17 10:27:47;;;;;;;3.30;1.42;;;22.50;99.90;;;;;;4969086;28;20203;-82
2022/07/17 10:30:26;;;;;;;3.00;1.50;;;22.30;99.90;;;;;;4966694;28;20451;-82
2022/07/17 10:33:06;;;;;;;3.40;1.45;;;21.80;99.90;;;;;;4960072;28;20441;-82
2022/07/17 10:35:47;;;;;;;3.38;1.73;;;22.20;99.90;;;;;;4974745;28;20053;-82
2022/07/17 10:38:14;;;;;;;3.45;1.55;;;22.10;99.90;;;;;;4954523;28;20071;-82
2022/07/17 10:40:41;;;;;;;2.92;1.50;;;21.60;99.90;;;;;;4967702;28;20490;-82
2022/07/17 10:43:08;;;;;;;4.28;1.27;;;22.00;99.90;;;;;;4977452;28;20042;-82
2022/07/17 10:45:42;;;;;;;3.33;1.80;;;22.00;99.90;;;;;;4966178;28;20082;-82
2022/07/17 10:48:12;;;;;;;4.00;1.48;;;21.80;99.90;;;;;;4979153;28;20524;-82
2022/07/17 10:50:40;;;;;;;3.97;1.38;;;21.70;99.90;;;;;;4960069;28;20057;-81
2022/07/17 10:53:17;;;;;;;3.15;1.45;;;22.10;99.90;;;;;;4954649;28;20185;-82
2022/07/17 10:55:45;;;;;;;5.60;1.80;;;22.50;99.90;;;;;;4984268;28;20054;-81
2022/07/17 10:58:21;;;;;;;2.70;1.55;;;23.10;99.90;;;;;;4967055;28;20054;-82
2022/07/17 11:01:10;;;;;;;2.42;1.52;;;23.40;99.90;;;;;;4980548;28;20553;-82
2022/07/17 11:03:43;;;;;;;4.13;1.52;;;23.70;99.90;;;;;;4967454;28;20217;-81
2022/07/17 11:06:12;;;;;;;3.13;1.50;;;23.80;99.90;;;;;;4962080;28;20050;-82
2022/07/17 11:09:08;;;;;;;3.47;1.27;;;24.00;99.90;;;;;;4974692;28;20462;-82
2022/07/17 11:11:49;;;;;;;4.07;1.40;;;23.80;99.90;;;;;;4966402;28;20177;-82
2022/07/17 11:14:23;;;;;;;2.75;1.30;;;23.80;99.90;;;;;;4979945;28;20440;-82
2022/07/17 11:17:02;;;;;;;3.42;1.33;;;23.70;99.90;;;;;;4979497;28;20122;-82
2022/07/17 11:19:32;;;;;;;3.95;1.38;;;24.20;99.90;;;;;;4953634;28;20082;-82
2022/07/17 11:22:00;;;;;;;2.80;1.40;;;23.40;99.90;;;;;;4966588;28;20329;-82
2022/07/17 11:24:43;;;;;;;4.15;1.55;;;23.70;99.90;;;;;;4976310;28;20117;-82
2022/07/17 11:27:33;;;;;;;3.83;1.60;;;23.20;99.90;;;;;;4986108;28;20069;-82
2022/07/17 11:30:01;;;;;;;3.88;1.52;;;23.30;99.90;;;;;;4965938;28;20055;-82
2022/07/17 11:32:35;;;;;;;5.00;1.35;;;23.60;99.90;;;;;;4979783;28;20109;-82
2022/07/17 11:35:01;;;;;;;5.05;1.55;;;24.30;99.90;;;;;;4963521;28;20038;-82
2022/07/17 11:37:30;;;;;;;5.10;1.73;;;24.10;99.90;;;;;;4964319;28;20049;-82
2022/07/17 11:39:57;;;;;;;3.08;1.65;;;24.60;99.90;;;;;;4964894;28;20042;-82
2022/07/17 11:42:23;;;;;;;3.47;1.33;;;24.20;99.90;;;;;;4973420;28;20387;-82
2022/07/17 11:44:51;;;;;;;3.30;1.35;;;24.60;99.90;;;;;;4957283;28;20039;-82
2022/07/17 11:47:26;;;;;;;4.93;1.40;;;24.10;99.90;;;;;;4965990;28;20074;-82
2022/07/17 11:50:03;;;;;;;4.20;1.70;;;24.40;99.90;;;;;;4958681;28;20447;-82
2022/07/17 11:52:48;;;;;;;4.13;1.60;;;24.30;99.90;;;;;;4971366;28;20078;-82
2022/07/17 11:55:17;;;;;;;3.22;1.88;;;24.70;99.90;;;;;;4978999;28;20521;-83
2022/07/17 11:57:48;;;;;;;3.33;1.65;;;24.70;99.90;;;;;;4966428;28;20185;-82
2022/07/17 12:00:17;;;;;;;2.05;1.40;;;24.80;99.90;;;;;;4965513;28;20052;-82
2022/07/17 12:02:43;;;;;;;6.60;1.80;;;24.10;99.90;;;;;;4979165;28;20169;-82
2022/07/17 12:05:09;;;;;;;3.67;1.70;;;24.50;99.90;;;;;;4982348;28;20124;-82
2022/07/17 12:07:45;;;;;;;4.25;1.83;;;25.20;99.90;;;;;;4958721;28;20054;-82
2022/07/17 12:10:22;;;;;;;2.25;1.42;;;25.50;99.90;;;;;;4974016;28;20409;-83
2022/07/17 12:12:58;;;;;;;3.55;1.85;;;24.50;99.90;;;;;;4968738;28;20469;-83
2022/07/17 12:15:54;;;;;;;2.78;1.45;;;25.20;99.90;;;;;;4978261;28;20085;-82
2022/07/17 12:18:25;;;;;;;4.57;1.95;;;25.30;99.90;;;;;;4948836;28;20054;-83
2022/07/17 12:20:54;;;;;;;4.05;2.10;;;24.90;99.90;;;;;;4977351;28;20086;-82
2022/07/17 12:23:31;;;;;;;4.13;1.73;;;25.10;99.90;;;;;;4968682;28;20046;-83
2022/07/17 12:26:23;;;;;;;4.47;2.00;;;24.70;99.90;;;;;;4976621;28;20042;-83
2022/07/17 12:28:49;;;;;;;4.40;2.03;;;24.90;99.90;;;;;;4965237;28;20061;-82
2022/07/17 12:31:15;;;;;;;3.15;2.10;;;25.30;99.90;;;;;;4981803;28;20054;-83
2022/07/17 12:33:41;;;;;;;4.22;2.17;;;25.50;99.90;;;;;;4970821;28;20053;-82
2022/07/17 12:36:07;;;;;;;3.63;2.00;;;25.50;99.90;;;;;;4977793;28;20050;-83
2022/07/17 12:38:33;;;;;;;3.03;2.10;;;24.70;99.90;;;;;;4966284;28;20050;-83
2022/07/17 12:40:59;;;;;;;4.35;2.13;;;25.50;99.90;;;;;;4980809;28;20545;-83
2022/07/17 12:43:26;;;;;;;5.53;2.40;;;25.60;99.90;;;;;;4960878;28;20101;-83
2022/07/17 12:45:52;;;;;;;3.65;2.38;;;25.40;99.90;;;;;;4981809;28;20035;-82
2022/07/17 12:48:18;;;;;;;4.88;2.00;;;25.80;99.90;;;;;;4959471;28;20038;-83
2022/07/17 12:50:44;;;;;;;5.47;2.63;;;26.00;99.90;;;;;;4975526;28;20064;-83
2022/07/17 12:53:09;;;;;;;3.20;2.45;;;25.50;99.90;;;;;;4965735;28;20054;-83
2022/07/17 12:55:38;;;;;;;4.03;2.20;;;25.70;99.90;;;;;;4969895;28;20046;-83